Aeroporto :







RITROVATECI SU...

 
LOGIN :

Iscrizione | Disclaimer

   EN    FR    IT 

 









Sommario :    VFR   VFR Marginale   IFR   IFR Intensivo   IFR Molto Intensivo
Visibilità : 
Base nubi : 
>= 8 km
>= 3000ft
5 / 8 km
1000 / 3000 ft
1500m / 5 km
500 / 1000 ft
800 / 1500m
200 / 500 ft
< 800m
< 200 ft
Simboli :   Temporali  Nebbia  Neve Forte  Precipitazioni Forti  Vento > 20 kt






- Altitudine del aeroporto : 166 ft
- Codice IATA : YCX


CYCX - Gagetown Heliport

ULTIMO METAR :
  • 062100Z AUTO 26009KT 9SM CLR M03/M10 A2989 RMK SLP124

METARs OBSOLETI :
  • 062000Z AUTO 29012KT 250V310 9SM CLR M02/M10 A2987 RMK SLP118
  • 061900Z AUTO 27007KT 9SM FEW078 FEW094 M02/M10 A2985 RMK SLP111

TAF TAF CYCX
Valido dal 06 a 12 ore il 07 a 00 ore UTC


061130Z 0612/0624 24008KT P6SM SCT020
TEMPO 0612/0614 BKN020
BECMG 0614/0616 24010G20KT
FM062200 25010KT P6SM BKN030 RMK NXT FCST BY 061800Z



MetMap, La meteo Aeronautica in un colpo d'occhio ! - Copyright ORBIFLY Dicembre 2007 - Disclaimer

ORBIFLY MET'MAP TEAM :

Programmazione e sviluppo : Alexandra Zaïnal
Concezione : Baudouin d'Aumeries
Aiuto per la programmazione : Marc-Olivier Méhu
Supporto tecnico e logistico : Manuel Goepfert
Aiuto per la traduzione : Arnaldo La Scala

Contatto : metmap@orbifly.com




FONTI E CREDITI :

   NOAA